Latest Weather Observations for Jabiru

IDD60801

Issued at 9:41 pm CST Monday 6 July 2020 (issued every 10 minutes, with the page automatically refreshed every 10 minutes)

About weather observations | Map of weather stations | Latest weather observations for NT | Other Formats
Station Details ID: 014198 Name: JABIRU AIRPORT Lat: -12.66 Lon: 132.89 Height: 26.5 m
Data from the previous 72 hours. | See also: Recent months at Jabiru
Date/Time
CST
Temp
°C
App
Temp
°C
Dew
Point
°C
Rel
Hum
%
Delta-T
°C
Wind Press
QNH
hPa
Press
MSL
hPa
Rain since
9am
mm
Dir  Spd
km/h
Gust
km/h
Spd
kts
Gust
kts
06/09:30pm 25.5 23.4 8.1 33 9.3 ESE 9 15 5 8 1015.8 1015.6 -
06/09:00pm 26.0 23.5 8.0 32 9.6 SE 11 17 6 9 1015.6 1015.4 -
06/08:30pm 26.6 24.1 8.1 31 10.0 SE 11 17 6 9 1015.5 1015.3 -
06/08:00pm 26.9 24.8 8.4 31 10.0 SE 9 15 5 8 1015.1 1014.9 -
06/07:30pm 27.5 24.7 8.4 30 10.4 SE 13 17 7 9 1014.9 1014.7 -
06/07:00pm 27.5 25.8 8.4 30 10.4 SE 7 13 4 7 1014.3 1014.1 -
06/06:30pm 28.4 26.0 8.7 29 10.8 SE 11 19 6 10 1013.9 1013.7 -
06/06:00pm 29.3 26.2 8.9 28 11.3 ESE 15 24 8 13 1013.7 1013.5 -
06/05:30pm 29.9 26.4 8.9 27 11.7 ESE 17 22 9 12 1013.5 1013.3 -
06/05:00pm 30.2 27.2 9.1 27 11.8 ESE 15 26 8 14 1013.2 1013.0 -
06/04:30pm 30.5 26.8 9.4 27 11.9 ESE 19 26 10 14 1013.1 1012.9 -
06/04:00pm 30.8 27.4 9.1 26 12.1 ESE 17 30 9 16 1012.9 1012.7 -
06/03:30pm 30.7 27.5 8.4 25 12.3 SE 15 24 8 13 1012.8 1012.6 -
06/03:00pm 30.6 26.6 8.3 25 12.3 SE 19 30 10 16 1012.9 1012.7 -
06/02:30pm 30.6 27.0 8.3 25 12.3 ESE 17 30 9 16 1013.1 1012.9 -
06/02:00pm 29.9 25.8 7.8 25 12.1 ESE 19 30 10 16 1013.4 1013.2 -
06/01:30pm 29.8 26.0 7.7 25 12.0 ESE 17 24 9 13 1013.7 1013.5 -
06/01:00pm 30.0 26.6 7.8 25 12.1 ESE 15 24 8 13 1014.2 1014.0 -
06/12:30pm 28.3 23.9 6.4 25 11.6 SE 19 28 10 15 1014.8 1014.6 -
06/12:00pm 28.0 23.3 6.2 25 11.4 ESE 20 32 11 17 1015.5 1015.3 -
06/11:30am 27.7 23.1 6.5 26 11.2 SE 20 33 11 18 1015.8 1015.6 -
06/11:00am 27.0 21.6 6.4 27 10.8 ESE 24 35 13 19 1015.9 1015.7 -
06/10:30am 26.4 21.0 6.4 28 10.4 ESE 24 41 13 22 1016.0 1015.8 -
06/10:00am 25.6 20.3 6.8 30 9.8 SE 24 39 13 21 1016.2 1016.0 -
06/09:30am 24.5 19.3 8.9 37 8.4 ESE 26 41 14 22 1016.4 1016.2 0.0
06/09:00am 24.2 19.7 10.1 41 7.8 ESE 24 43 13 23 1016.3 1016.1 0.0
06/08:30am 23.1 19.5 10.5 45 6.9 ESE 20 41 11 22 1016.2 1016.0 0.0
06/08:00am 22.5 19.2 10.9 48 6.4 ESE 19 30 10 16 1016.1 1015.9 0.0
06/07:30am 22.2 19.7 11.0 49 6.2 ESE 15 26 8 14 1015.9 1015.7 0.0
06/07:00am 22.2 19.7 12.2 53 5.7 ESE 17 33 9 18 1015.7 1015.5 0.0
06/06:30am 21.6 20.0 12.7 57 5.1 ESE 13 24 7 13 1015.7 1015.5 0.0
06/06:00am 21.8 19.6 13.2 58 4.9 E 17 28 9 15 1015.8 1015.6 0.0
06/05:30am 22.0 19.7 13.1 57 5.1 ESE 17 28 9 15 1015.4 1015.2 0.0
06/05:00am 21.8 20.3 13.2 58 4.9 ESE 13 20 7 11 1015.4 1015.2 0.0
06/04:30am 21.9 20.5 13.3 58 4.9 ESE 13 28 7 15 1015.5 1015.3 0.0
06/04:00am 21.9 20.5 13.5 59 4.9 ESE 13 20 7 11 1015.5 1015.3 0.0
06/03:30am 21.9 21.6 14.5 63 4.3 ESE 9 15 5 8 1015.6 1015.4 0.0
06/03:00am 22.5 21.9 14.6 61 4.7 ESE 11 24 6 13 1015.8 1015.6 0.0
06/02:30am 22.5 22.0 14.9 62 4.5 SE 11 20 6 11 1016.2 1016.0 0.0
06/02:00am 22.4 22.5 14.5 61 4.7 ESE 7 11 4 6 1016.3 1016.1 0.0
06/01:30am 22.9 22.2 14.2 58 5.1 ESE 11 13 6 7 1016.3 1016.1 0.0
06/01:00am 23.5 22.4 14.2 56 5.5 ESE 13 20 7 11 1016.4 1016.2 0.0
06/12:30am 23.4 22.7 14.4 57 5.3 ESE 11 17 6 9 1016.3 1016.1 0.0
06/12:00am 23.7 22.5 14.1 55 5.6 ESE 13 20 7 11 1016.2 1016.0 0.0
 
Date/Time
CST
Temp
°C
App
Temp
°C
Dew
Point
°C
Rel
Hum
%
Delta-T
°C
Wind Press
QNH
hPa
Press
MSL
hPa
Rain since
9am
mm
Dir  Spd
km/h
Gust
km/h
Spd
kts
Gust
kts
05/11:30pm 24.2 22.5 13.7 52 6.1 ESE 15 26 8 14 1015.9 1015.7 0.0
05/11:00pm 24.3 22.7 12.9 49 6.6 ESE 13 20 7 11 1015.7 1015.5 0.0
05/10:30pm 24.6 23.2 12.2 46 7.1 SE 11 17 6 9 1015.5 1015.3 0.0
05/10:00pm 24.9 23.5 12.2 45 7.3 ESE 11 20 6 11 1015.5 1015.3 0.0
05/09:30pm 25.6 22.5 12.1 43 7.7 ESE 20 39 11 21 1015.3 1015.1 0.0
05/09:00pm 26.2 23.1 11.5 40 8.4 SE 19 32 10 17 1014.9 1014.7 0.0
05/08:30pm 26.8 23.4 11.3 38 8.8 SE 20 33 11 18 1014.6 1014.4 0.0
05/08:00pm 27.6 24.1 10.8 35 9.5 SE 20 30 11 16 1014.3 1014.1 0.0
05/07:30pm 28.1 25.5 10.8 34 9.8 SE 15 24 8 13 1014.0 1013.8 0.0
05/07:00pm 28.3 25.4 10.9 34 9.9 SE 17 30 9 16 1013.6 1013.4 0.0
05/06:30pm 28.5 26.0 11.1 34 10.0 SE 15 24 8 13 1013.3 1013.1 0.0
05/06:00pm 28.9 26.9 11.5 34 10.0 ESE 13 22 7 12 1012.8 1012.6 0.0
05/05:30pm 29.5 27.5 11.5 33 10.4 SE 13 22 7 12 1012.4 1012.2 0.0
05/05:00pm 29.9 27.9 11.4 32 10.7 SE 13 24 7 13 1012.1 1011.9 0.0
05/04:30pm 30.0 27.5 11.0 31 10.9 ESE 15 20 8 11 1012.0 1011.8 0.0
05/04:00pm 29.9 27.5 11.4 32 10.7 SE 15 22 8 12 1012.1 1011.9 0.0
05/03:30pm 30.0 27.1 11.0 31 10.9 SE 17 26 9 14 1012.2 1012.0 0.0
05/03:00pm 29.6 27.0 10.7 31 10.8 SE 15 22 8 12 1012.4 1012.2 0.0
05/02:30pm 30.6 28.1 11.1 30 11.3 ESE 15 28 8 15 1012.7 1012.5 0.0
05/02:00pm 30.1 27.5 10.6 30 11.1 ESE 15 30 8 16 1013.2 1013.0 0.0
05/01:30pm 29.8 26.9 10.9 31 10.8 SE 17 28 9 15 1013.6 1013.4 0.0
05/01:00pm 28.9 25.5 10.6 32 10.4 SE 19 33 10 18 1014.0 1013.8 0.0
05/12:30pm 28.7 25.2 10.8 33 10.2 SE 20 30 11 16 1014.5 1014.3 0.0
05/12:00pm 27.9 24.3 10.6 34 9.8 SE 20 32 11 17 1014.9 1014.7 0.0
05/11:30am 27.7 24.6 11.7 37 9.2 SE 19 33 10 18 1015.4 1015.2 0.0
05/11:00am 26.7 23.7 12.4 41 8.3 SE 20 32 11 17 1015.7 1015.5 0.0
05/10:30am 26.1 23.0 12.2 42 8.0 SE 20 35 11 19 1016.0 1015.8 0.0
05/10:00am 25.6 22.6 12.4 43 7.6 SE 20 30 11 16 1016.2 1016.0 0.0
05/09:30am 24.8 21.5 12.7 47 7.0 SE 22 35 12 19 1016.2 1016.0 0.0
05/09:00am 24.6 22.2 12.5 46 6.9 SE 17 28 9 15 1016.2 1016.0 0.0
05/08:30am 24.0 21.6 11.3 45 7.1 ESE 15 24 8 13 1016.0 1015.8 0.0
05/08:00am 23.0 21.7 10.1 44 7.1 SE 7 13 4 7 1015.7 1015.5 0.0
05/07:30am 22.5 20.7 9.6 44 7.0 ESE 9 11 5 6 1015.3 1015.1 0.0
05/07:00am 22.6 19.9 9.0 42 7.3 ESE 13 24 7 13 1014.8 1014.6 0.0
05/06:30am 22.1 19.0 8.9 43 7.0 E 15 24 8 13 1014.5 1014.3 0.0
05/06:00am 21.6 19.7 9.2 45 6.6 ESE 9 15 5 8 1014.6 1014.4 0.0
05/05:30am 22.1 19.5 9.3 44 6.9 ESE 13 24 7 13 1014.8 1014.6 0.0
05/05:00am 21.4 20.1 9.3 46 6.5 SE 6 11 3 6 1015.1 1014.9 0.0
05/04:30am 22.6 20.4 9.4 43 7.1 ESE 11 17 6 9 1015.0 1014.8 0.0
05/04:00am 22.6 20.5 9.7 44 7.0 ESE 11 20 6 11 1014.9 1014.7 0.0
05/03:30am 23.2 20.0 9.9 43 7.3 E 17 24 9 13 1014.9 1014.7 0.0
05/03:00am 22.8 20.8 10.3 45 6.8 ESE 11 15 6 8 1015.2 1015.0 0.0
05/02:30am 23.1 21.7 10.9 46 6.8 ESE 9 17 5 9 1015.6 1015.4 0.0
05/02:00am 22.9 22.0 11.3 48 6.5 ESE 7 13 4 7 1016.0 1015.8 0.0
05/01:30am 23.9 21.8 11.3 45 7.1 ESE 13 20 7 11 1016.3 1016.1 0.0
05/01:00am 24.1 21.6 11.1 44 7.3 ESE 15 24 8 13 1016.5 1016.3 0.0
05/12:30am 24.3 22.1 10.9 43 7.5 ESE 13 20 7 11 1016.7 1016.5 0.0
05/12:00am 25.3 21.9 11.1 41 8.0 ESE 20 32 11 17 1017.0 1016.8 0.0
 
Date/Time
CST
Temp
°C
App
Temp
°C
Dew
Point
°C
Rel
Hum
%
Delta-T
°C
Wind Press
QNH
hPa
Press
MSL
hPa
Rain since
9am
mm
Dir  Spd
km/h
Gust
km/h
Spd
kts
Gust
kts
04/11:30pm 25.3 23.1 13.2 47 7.1 ESE 17 28 9 15 1017.0 1016.8 0.0
04/11:00pm 25.6 24.8 15.0 52 6.4 ESE 13 20 7 11 1017.0 1016.8 0.0
04/10:30pm 26.1 25.0 15.2 51 6.6 SE 15 28 8 15 1016.6 1016.4 0.0
04/10:00pm 26.7 24.4 14.1 46 7.5 ESE 19 33 10 18 1016.3 1016.1 0.0
04/09:30pm 27.2 24.6 12.0 38 8.8 SE 17 30 9 16 1016.1 1015.9 0.0
04/09:00pm 27.4 25.3 11.0 36 9.3 SE 13 26 7 14 1015.8 1015.6 0.0
04/08:30pm 27.7 25.5 10.9 35 9.5 SE 13 19 7 10 1015.4 1015.2 0.0
04/08:00pm 28.2 25.3 10.9 34 9.8 SE 17 28 9 15 1015.0 1014.8 0.0
04/07:30pm 28.3 26.5 10.9 34 9.9 SE 11 20 6 11 1014.6 1014.4 0.0
04/07:00pm 28.7 26.0 10.4 32 10.4 SE 15 22 8 12 1014.1 1013.9 0.0
04/06:30pm 29.2 27.2 10.3 31 10.7 SE 11 20 6 11 1013.8 1013.6 0.0
04/06:00pm 30.1 27.7 10.1 29 11.3 SE 13 20 7 11 1013.5 1013.3 0.0
04/05:30pm 30.9 28.2 10.3 28 11.8 ESE 15 28 8 15 1013.3 1013.1 0.0
04/05:00pm 31.3 28.3 10.6 28 11.9 SE 17 26 9 14 1013.1 1012.9 0.0
04/04:30pm 31.6 28.1 10.3 27 12.2 SE 19 35 10 19 1013.1 1012.9 0.0
04/04:00pm 31.9 28.3 10.0 26 12.5 SE 19 32 10 17 1013.2 1013.0 0.0
04/03:30pm 32.0 27.5 10.1 26 12.5 E 24 35 13 19 1013.3 1013.1 0.0
04/03:00pm 32.0 27.1 10.1 26 12.5 ESE 26 39 14 21 1013.3 1013.1 0.0
04/02:30pm 32.4 28.4 10.4 26 12.7 ESE 22 39 12 21 1013.5 1013.3 0.0
04/02:00pm 31.2 27.6 10.5 28 11.9 SE 20 35 11 19 1014.1 1013.9 0.0
04/01:30pm 31.9 28.6 11.7 29 11.8 ESE 20 33 11 18 1014.5 1014.3 0.0
04/01:00pm 30.8 25.7 10.7 29 11.5 ESE 28 44 15 24 1015.1 1014.9 0.0
04/12:30pm 30.6 26.5 11.5 30 11.1 SE 24 37 13 20 1015.6 1015.4 0.0
04/12:00pm 30.5 25.8 11.9 31 10.9 ESE 28 43 15 23 1016.0 1015.8 0.0
04/11:30am 29.7 25.1 12.2 34 10.2 ESE 28 48 15 26 1016.5 1016.3 0.0
04/11:29am 29.8 25.2 12.3 34 10.3 ESE 28 48 15 26 1016.5 1016.3 0.0
04/11:00am 29.2 25.5 12.6 36 9.8 ESE 24 33 13 18 1016.8 1016.6 0.0
04/10:30am 28.3 24.3 14.2 42 8.5 SE 28 46 15 25 1017.0 1016.8 0.0
04/10:11am 28.1 24.2 14.3 42 8.3 ESE 28 46 15 25 1017.0 1016.8 0.0
04/10:00am 28.1 25.2 15.1 45 7.9 ESE 24 41 13 22 1017.0 1016.8 0.0
04/09:46am 27.7 24.2 15.4 47 7.5 ESE 28 50 15 27 1017.0 1016.8 0.0
04/09:30am 27.6 25.0 15.9 49 7.2 ESE 24 37 13 20 1017.1 1016.9 0.0
04/09:00am 26.8 24.2 15.8 51 6.7 ESE 24 35 13 19 1017.2 1017.0 0.0
04/08:30am 26.5 25.1 15.5 50 6.7 SE 17 28 9 15 1016.7 1016.5 0.0
04/08:00am 25.6 25.7 15.6 54 6.1 ESE 9 15 5 8 1016.2 1016.0 0.0
04/07:30am 24.2 24.4 15.7 59 5.1 SE 9 13 5 7 1015.9 1015.7 0.0
04/07:00am 23.6 23.9 16.1 62 4.6 SE 9 15 5 8 1015.6 1015.4 0.0
04/06:30am 23.1 23.8 16.2 65 4.2 SE 7 11 4 6 1015.3 1015.1 0.0
04/06:00am 22.7 23.9 15.8 65 4.2 SE 4 7 2 4 1015.2 1015.0 0.0
04/05:30am 23.7 24.0 16.0 62 4.7 SE 9 13 5 7 1015.0 1014.8 0.0
04/05:00am 23.9 24.2 15.9 61 4.9 ESE 9 11 5 6 1015.1 1014.9 0.0
04/04:30am 24.3 25.1 16.3 61 4.9 SE 7 11 4 6 1015.3 1015.1 0.0
04/04:00am 24.3 25.3 16.8 63 4.6 ESE 7 13 4 7 1015.4 1015.2 0.0
04/03:30am 24.6 25.3 17.1 63 4.6 ESE 9 15 5 8 1015.6 1015.4 0.0
04/03:00am 25.0 25.5 17.5 63 4.7 ESE 11 15 6 8 1016.0 1015.8 0.0
04/02:30am 25.5 25.7 17.7 62 4.9 ESE 13 19 7 10 1016.1 1015.9 0.0
04/02:00am 26.1 25.9 17.7 60 5.3 ESE 15 20 8 11 1016.2 1016.0 0.0
04/01:30am 26.7 25.8 17.8 58 5.6 E 19 30 10 16 1016.3 1016.1 0.0
04/01:00am 27.1 26.5 17.6 56 6.0 ESE 17 30 9 16 1016.6 1016.4 0.0
04/12:30am 27.6 26.6 17.5 54 6.4 ESE 19 28 10 15 1016.7 1016.5 0.0
04/12:00am 27.8 27.0 17.9 54 6.3 E 19 30 10 16 1016.7 1016.5 0.0
 
Date/Time
CST
Temp
°C
App
Temp
°C
Dew
Point
°C
Rel
Hum
%
Delta-T
°C
Wind Press
QNH
hPa
Press
MSL
hPa
Rain since
9am
mm
Dir  Spd
km/h
Gust
km/h
Spd
kts
Gust
kts
03/11:30pm 27.2 28.4 18.2 58 5.7 ESE 9 15 5 8 1016.5 1016.3 0.0
03/11:00pm 27.3 28.4 18.0 56 5.9 ESE 9 15 5 8 1016.6 1016.4 0.0
03/10:30pm 27.0 28.0 17.8 57 5.8 SE 9 11 5 6 1016.5 1016.3 0.0
03/10:00pm 27.5 27.7 17.7 55 6.2 ESE 13 19 7 10 1016.2 1016.0 0.0

Other formats

Comma delimited format used in spreadsheet applications
http://www.bom.gov.au/fwo/IDD60801/IDD60801.94137.axf

JavaScript Object Notation format (JSON) in row-major order
http://www.bom.gov.au/fwo/IDD60801/IDD60801.94137.json

Data quality

Most of these data are generated automatically and are frequently updated. Quality checks on data are not normally performed. It is possible for incorrect values to appear. Refer to information at About Latest Weather Observations and please check the disclaimer before using these data.